createdAt,value
2023-04-08T00:01:35.510Z,101738.78
2023-04-08T00:04:03.149Z,101738.88
2023-04-08T00:06:44.090Z,101734.41
2023-04-08T00:09:11.126Z,101743.38
2023-04-08T00:11:56.769Z,101739.84
2023-04-08T00:14:23.766Z,101745.19
2023-04-08T00:16:50.891Z,101742.69
2023-04-08T00:19:18.247Z,101743.56
2023-04-08T00:21:48.608Z,101749.50
2023-04-08T00:24:15.546Z,101743.84
2023-04-08T00:26:45.296Z,101749.28
2023-04-08T00:29:15.045Z,101741.94
2023-04-08T00:31:48.016Z,101751.75
2023-04-08T00:34:38.769Z,101743.72
2023-04-08T00:37:05.645Z,101746.41
2023-04-08T00:39:47.271Z,101744.50
2023-04-08T00:42:14.149Z,101741.66
2023-04-08T00:44:44.215Z,101746.91
2023-04-08T00:47:17.765Z,101747.19
2023-04-08T00:49:45.463Z,101755.91
2023-04-08T00:52:15.551Z,101753.22
2023-04-08T00:54:51.383Z,101749.56
2023-04-08T00:57:18.724Z,101749.69
2023-04-08T00:59:45.779Z,101749.69
2023-04-08T01:02:50.780Z,101745.28
2023-04-08T01:05:54.836Z,101748.72
2023-04-08T01:11:21.488Z,101753.00
2023-04-08T01:14:15.744Z,101756.63
2023-04-08T01:16:52.766Z,101752.16
2023-04-08T01:19:58.889Z,101747.66
2023-04-08T01:23:27.770Z,101762.84
2023-04-08T01:26:00.192Z,101747.09
2023-04-08T01:28:53.788Z,101752.31
2023-04-08T01:31:24.863Z,101745.63
2023-04-08T01:34:09.027Z,101758.06
2023-04-08T01:37:04.895Z,101748.38
2023-04-08T01:39:50.526Z,101745.63
2023-04-08T01:42:48.657Z,101756.53
2023-04-08T01:45:18.311Z,101760.13
2023-04-08T01:47:51.012Z,101754.69
2023-04-08T01:50:20.824Z,101753.94
2023-04-08T01:52:53.860Z,101759.28
2023-04-08T01:55:21.726Z,101758.31
2023-04-08T01:58:01.472Z,101758.59
2023-04-08T02:00:51.440Z,101758.41
2023-04-08T02:03:29.914Z,101748.16
2023-04-08T02:05:56.904Z,101756.09
2023-04-08T02:08:23.646Z,101753.44
2023-04-08T02:10:50.335Z,101745.69
2023-04-08T02:13:17.240Z,101749.31
2023-04-08T02:16:03.218Z,101754.66
2023-04-08T02:18:36.393Z,101757.34
2023-04-08T02:21:15.747Z,101753.13
2023-04-08T02:23:52.700Z,101756.06
2023-04-08T02:26:26.911Z,101763.66
2023-04-08T02:29:05.705Z,101750.56
2023-04-08T02:31:35.416Z,101754.03
2023-04-08T02:34:05.350Z,101763.16
2023-04-08T02:36:40.222Z,101749.03
2023-04-08T02:39:07.772Z,101749.09
2023-04-08T02:41:35.966Z,101766.88
2023-04-08T02:44:02.923Z,101763.34
2023-04-08T02:46:32.658Z,101759.13
2023-04-08T02:48:59.511Z,101758.44
2023-04-08T02:51:26.502Z,101763.88
2023-04-08T02:53:53.703Z,101769.25
2023-04-08T02:56:21.823Z,101763.97
2023-04-08T02:58:49.091Z,101769.50
2023-04-08T03:01:17.962Z,101767.84
2023-04-08T03:03:45.056Z,101764.91
2023-04-08T03:06:12.118Z,101768.28
2023-04-08T03:08:43.594Z,101770.44
2023-04-08T03:11:10.360Z,101782.69
2023-04-08T03:13:47.070Z,101771.47
2023-04-08T03:16:15.281Z,101776.22
2023-04-08T03:18:45.109Z,101777.41
2023-04-08T03:21:12.045Z,101780.94
2023-04-08T03:23:42.353Z,101784.38
2023-04-08T03:26:12.588Z,101784.38
2023-04-08T03:28:45.507Z,101781.13
2023-04-08T03:31:13.515Z,101784.75
2023-04-08T03:33:43.650Z,101788.09
2023-04-08T03:36:13.157Z,101788.88
2023-04-08T03:38:46.312Z,101785.53
2023-04-08T03:41:13.022Z,101781.19
2023-04-08T03:43:46.687Z,101780.34
2023-04-08T03:46:16.594Z,101783.81
2023-04-08T03:48:52.538Z,101783.81
2023-04-08T03:51:19.609Z,101775.84
2023-04-08T03:53:49.759Z,101781.19
2023-04-08T03:56:27.052Z,101782.94
2023-04-08T03:58:53.821Z,101789.59
2023-04-08T04:01:23.548Z,101787.84
2023-04-08T04:03:50.555Z,101784.59
2023-04-08T04:06:17.440Z,101797.88
2023-04-08T04:08:44.663Z,101790.72
2023-04-08T04:11:14.997Z,101795.00
2023-04-08T04:13:44.505Z,101798.38
2023-04-08T04:16:13.663Z,101797.75
2023-04-08T04:18:43.935Z,101804.84
2023-04-08T04:21:12.073Z,101807.53
2023-04-08T04:23:57.019Z,101817.25
2023-04-08T04:26:23.835Z,101805.78
2023-04-08T04:28:55.725Z,101827.00
2023-04-08T04:31:35.004Z,101824.66
2023-04-08T04:34:05.361Z,101820.50
2023-04-08T04:36:59.215Z,101823.44
2023-04-08T04:39:24.121Z,101826.22
2023-04-08T04:41:51.058Z,101825.19
2023-04-08T04:44:17.979Z,101814.50
2023-04-08T04:47:03.973Z,101819.84
2023-04-08T04:49:33.988Z,101828.53
2023-04-08T04:52:01.049Z,101827.66
2023-04-08T04:54:30.816Z,101834.91
2023-04-08T04:57:00.998Z,101841.13
2023-04-08T04:59:28.132Z,101841.22
2023-04-08T05:01:57.817Z,101842.25
2023-04-08T05:04:28.066Z,101839.56
2023-04-08T05:06:55.138Z,101841.13
2023-04-08T05:09:32.518Z,101834.75
2023-04-08T05:12:09.005Z,101840.69
2023-04-08T05:14:46.469Z,101835.69
2023-04-08T05:17:13.411Z,101849.69
2023-04-08T05:19:47.574Z,101842.41
2023-04-08T05:22:14.435Z,101851.72
2023-04-08T05:24:46.824Z,101857.25
2023-04-08T05:27:13.694Z,101848.78
2023-04-08T05:29:48.677Z,101851.38
2023-04-08T05:32:21.622Z,101852.31
2023-04-08T05:34:48.550Z,101857.56
2023-04-08T05:37:18.073Z,101854.63
2023-04-08T05:39:47.454Z,101849.31
2023-04-08T05:42:14.279Z,101860.59
2023-04-08T05:44:51.027Z,101856.13
2023-04-08T05:47:21.562Z,101865.59
2023-04-08T05:49:51.134Z,101856.66
2023-04-08T05:52:20.555Z,101857.50
2023-04-08T05:54:52.693Z,101853.88
2023-04-08T05:57:21.822Z,101858.97
2023-04-08T05:59:53.353Z,101857.84
2023-04-08T06:02:20.271Z,101863.78
2023-04-08T06:04:51.599Z,101858.03
2023-04-08T06:07:20.841Z,101863.31
2023-04-08T06:09:51.791Z,101872.19
2023-04-08T06:12:27.741Z,101881.66
2023-04-08T06:15:03.883Z,101875.88
2023-04-08T06:17:48.682Z,101870.16
2023-04-08T06:20:21.217Z,101871.72
2023-04-08T06:22:48.000Z,101882.28
2023-04-08T06:25:17.305Z,101879.66
2023-04-08T06:28:06.111Z,101877.66
2023-04-08T06:30:36.246Z,101872.06
2023-04-08T06:33:05.608Z,101886.13
2023-04-08T06:35:36.135Z,101879.50
2023-04-08T06:38:03.607Z,101887.16
2023-04-08T06:40:34.241Z,101892.78
2023-04-08T06:43:03.896Z,101887.16
2023-04-08T06:45:35.384Z,101897.88
2023-04-08T06:48:02.588Z,101898.56
2023-04-08T06:50:29.522Z,101907.00
2023-04-08T06:53:01.465Z,101910.53
2023-04-08T06:55:35.754Z,101903.91
2023-04-08T06:58:06.913Z,101920.63
2023-04-08T07:00:36.661Z,101914.59
2023-04-08T07:03:33.948Z,101915.97
2023-04-08T07:06:03.064Z,101912.84
2023-04-08T07:09:03.193Z,101925.88
2023-04-08T07:11:30.129Z,101919.03
2023-04-08T07:14:27.042Z,101929.50
2023-04-08T07:17:07.218Z,101938.25
2023-04-08T07:19:59.704Z,101927.13
2023-04-08T07:22:32.784Z,101929.44
2023-04-08T07:26:09.139Z,101935.78
2023-04-08T07:28:29.213Z,101932.72
2023-04-08T07:31:28.069Z,101942.22
2023-04-08T07:34:18.739Z,101940.34
2023-04-08T07:37:02.825Z,101942.66
2023-04-08T07:40:27.884Z,101943.72
2023-04-08T07:43:32.210Z,101950.53
2023-04-08T07:46:10.607Z,101954.13
2023-04-08T07:53:13.051Z,101952.75
2023-04-08T08:03:16.239Z,101956.28
2023-04-08T08:06:27.455Z,101961.63
2023-04-08T08:09:19.059Z,101964.72
2023-04-08T08:11:49.597Z,101972.28
2023-04-08T08:14:16.726Z,101976.63
2023-04-08T08:16:59.169Z,101970.00
2023-04-08T08:22:21.778Z,101973.34
2023-04-08T08:25:02.193Z,101984.97
2023-04-08T08:33:22.637Z,101987.06
2023-04-08T08:35:52.030Z,101992.34
2023-04-08T08:38:33.630Z,101992.63
2023-04-08T08:41:13.584Z,101989.19
2023-04-08T08:43:54.403Z,101990.50
2023-04-08T08:46:27.080Z,101994.13
2023-04-08T08:49:15.655Z,102001.09
2023-04-08T08:52:36.647Z,101990.81
2023-04-08T08:58:24.857Z,101994.31
2023-04-08T09:00:57.096Z,101997.56
2023-04-08T09:03:33.468Z,102004.47
2023-04-08T09:06:27.900Z,102006.88
2023-04-08T09:09:23.164Z,102011.28
2023-04-08T09:12:06.944Z,102011.47
2023-04-08T09:14:33.854Z,102012.13
2023-04-08T09:17:12.125Z,102019.31
2023-04-08T09:20:16.970Z,102012.31
2023-04-08T09:23:26.198Z,102016.59
2023-04-08T09:26:27.884Z,102016.00
2023-04-08T09:29:26.103Z,102017.06
2023-04-08T09:31:59.010Z,102018.88
2023-04-08T09:38:05.372Z,102025.94
2023-04-08T09:41:26.696Z,102031.66
2023-04-08T09:44:19.927Z,102026.22
2023-04-08T09:47:56.371Z,102029.25
2023-04-08T09:51:44.913Z,102032.16
2023-04-08T09:54:29.232Z,102034.06
2023-04-08T09:57:35.976Z,102035.59
2023-04-08T10:03:27.938Z,102028.94
2023-04-08T10:06:08.610Z,102030.19
2023-04-08T10:08:58.790Z,102027.69
2023-04-08T10:11:30.448Z,102033.78
2023-04-08T10:14:04.659Z,102032.56
2023-04-08T10:16:37.105Z,102036.47
2023-04-08T10:19:58.868Z,102041.47
2023-04-08T10:22:34.727Z,102043.00
2023-04-08T10:25:16.948Z,102041.09
2023-04-08T10:30:57.442Z,102033.72
2023-04-08T10:34:38.498Z,102034.94
2023-04-08T10:37:16.117Z,102040.25
2023-04-08T10:40:01.254Z,102039.00
2023-04-08T10:46:25.111Z,102045.66
2023-04-08T10:50:20.529Z,102043.25
2023-04-08T10:52:55.909Z,102034.50
2023-04-08T10:55:29.632Z,102039.47
2023-04-08T10:58:09.404Z,102041.50
2023-04-08T11:00:43.685Z,102036.25
2023-04-08T11:03:32.680Z,102040.44
2023-04-08T11:07:07.678Z,102039.91
2023-04-08T11:09:34.538Z,102039.56
2023-04-08T11:12:03.747Z,102035.59
2023-04-08T11:14:33.118Z,102035.06
2023-04-08T11:17:14.241Z,102042.53
2023-04-08T11:19:47.205Z,102035.31
2023-04-08T11:22:14.817Z,102026.44
2023-04-08T11:24:49.905Z,102033.75
2023-04-08T11:27:17.108Z,102032.31
2023-04-08T11:29:47.379Z,102037.88
2023-04-08T11:32:14.663Z,102032.00
2023-04-08T11:34:47.582Z,102039.28
2023-04-08T11:38:04.129Z,102042.53
2023-04-08T11:40:27.490Z,102035.09
2023-04-08T11:43:00.640Z,102032.25
2023-04-08T11:45:33.254Z,102032.81
2023-04-08T11:48:25.917Z,102047.19
2023-04-08T11:51:12.396Z,102037.88
2023-04-08T11:53:49.204Z,102038.81
2023-04-08T11:56:23.484Z,102046.00
2023-04-08T11:58:52.319Z,102051.91
2023-04-08T12:01:29.064Z,102047.25
2023-04-08T12:07:08.734Z,102051.16
2023-04-08T12:09:38.670Z,102048.22
2023-04-08T12:12:05.770Z,102049.25
2023-04-08T12:14:38.162Z,102042.25
2023-04-08T12:17:05.085Z,102048.75
2023-04-08T12:19:33.532Z,102057.94
2023-04-08T12:22:01.025Z,102054.75
2023-04-08T12:24:29.792Z,102054.66
2023-04-08T12:27:04.650Z,102052.38
2023-04-08T12:29:32.151Z,102056.22
2023-04-08T12:32:02.588Z,102052.94
2023-04-08T12:34:29.372Z,102056.13
2023-04-08T12:37:01.772Z,102056.94
2023-04-08T12:39:28.764Z,102062.59
2023-04-08T12:42:05.687Z,102060.66
2023-04-08T12:44:32.513Z,102058.88
2023-04-08T12:47:02.409Z,102065.84
2023-04-08T12:49:49.301Z,102060.63
2023-04-08T12:52:22.132Z,102054.88
2023-04-08T12:55:01.484Z,102048.66
2023-04-08T12:57:30.774Z,102057.41
2023-04-08T13:00:14.323Z,102048.59
2023-04-08T13:02:47.002Z,102054.19
2023-04-08T13:05:19.711Z,102054.47
2023-04-08T13:07:50.818Z,102061.94
2023-04-08T13:10:28.219Z,102057.47
2023-04-08T13:13:05.360Z,102059.47
2023-04-08T13:15:45.534Z,102064.75
2023-04-08T13:18:17.892Z,102059.13
2023-04-08T13:20:44.676Z,102059.59
2023-04-08T13:23:24.115Z,102052.25
2023-04-08T13:25:51.452Z,102046.00
2023-04-08T13:28:23.900Z,102049.22
2023-04-08T13:30:51.132Z,102044.13
2023-04-08T13:33:23.128Z,102056.88
2023-04-08T13:35:50.005Z,102055.81
2023-04-08T13:38:20.020Z,102039.41
2023-04-08T13:40:52.524Z,102048.03
2023-04-08T13:43:35.549Z,102053.25
2023-04-08T13:46:07.428Z,102053.16
2023-04-08T13:48:34.265Z,102054.81
2023-04-08T13:51:04.163Z,102059.44
2023-04-08T13:53:37.453Z,102051.91
2023-04-08T13:56:09.836Z,102050.53
2023-04-08T13:58:36.981Z,102049.63
2023-04-08T14:01:29.387Z,102050.19
2023-04-08T14:07:19.185Z,102041.28
2023-04-08T14:09:46.669Z,102037.06
2023-04-08T14:12:21.072Z,102041.88
2023-04-08T14:14:48.046Z,102039.25
2023-04-08T14:17:17.820Z,102043.97
2023-04-08T14:20:21.414Z,102048.41
2023-04-08T14:23:20.039Z,102043.06
2023-04-08T14:25:46.875Z,102045.44
2023-04-08T14:28:48.961Z,102038.44
2023-04-08T14:31:18.768Z,102041.63
2023-04-08T14:33:48.466Z,102039.81
2023-04-08T14:36:15.814Z,102034.25
2023-04-08T14:38:47.838Z,102036.53
2023-04-08T14:41:20.614Z,102042.94
2023-04-08T14:44:11.594Z,102034.97
2023-04-08T14:46:38.719Z,102041.19
2023-04-08T14:49:11.216Z,102037.63
2023-04-08T14:51:53.351Z,102046.16
2023-04-08T14:54:26.156Z,102035.91
2023-04-08T14:57:19.178Z,102038.47
2023-04-08T14:59:52.589Z,102038.84
2023-04-08T15:02:22.585Z,102043.66
2023-04-08T15:04:51.532Z,102036.97
2023-04-08T15:07:21.449Z,102037.81
2023-04-08T15:09:48.130Z,102046.78
2023-04-08T15:12:20.465Z,102035.38
2023-04-08T15:14:48.978Z,102040.75
2023-04-08T15:17:26.730Z,102035.97
2023-04-08T15:19:53.669Z,102034.63
2023-04-08T15:22:21.149Z,102035.97
2023-04-08T15:24:48.292Z,102039.38
2023-04-08T15:27:21.536Z,102041.63
2023-04-08T15:29:48.281Z,102038.63
2023-04-08T15:32:24.452Z,102041.53
2023-04-08T15:34:57.981Z,102040.44
2023-04-08T15:37:25.195Z,102041.31
2023-04-08T15:42:35.694Z,102037.16
2023-04-08T15:45:15.002Z,102035.31
2023-04-08T15:47:46.867Z,102032.13
2023-04-08T15:50:19.795Z,102033.06
2023-04-08T15:53:08.777Z,102041.19
2023-04-08T15:55:54.301Z,102046.56
2023-04-08T15:58:24.137Z,102049.38
2023-04-08T16:01:16.866Z,102045.28
2023-04-08T16:03:49.773Z,102041.16
2023-04-08T16:06:34.820Z,102049.34
2023-04-08T16:09:03.967Z,102044.63
2023-04-08T16:11:30.773Z,102046.78
2023-04-08T16:14:00.666Z,102039.97
2023-04-08T16:16:29.741Z,102047.22
2023-04-08T16:19:10.920Z,102045.41
2023-04-08T16:21:57.896Z,102039.69
2023-04-08T16:24:29.860Z,102047.88
2023-04-08T16:27:09.396Z,102046.28
2023-04-08T16:32:48.815Z,102053.66
2023-04-08T16:35:37.253Z,102056.72
2023-04-08T16:38:07.322Z,102051.84
2023-04-08T16:40:50.353Z,102058.06
2023-04-08T16:43:30.222Z,102060.31
2023-04-08T16:46:25.455Z,102057.97
2023-04-08T16:48:54.688Z,102059.22
2023-04-08T16:52:12.241Z,102051.25
2023-04-08T16:54:49.250Z,102053.72
2023-04-08T16:57:51.375Z,102048.75
2023-04-08T17:00:49.742Z,102051.78
2023-04-08T17:03:22.293Z,102055.75
2023-04-08T17:05:49.281Z,102051.25
2023-04-08T17:08:36.569Z,102054.97
2023-04-08T17:11:15.615Z,102055.16
2023-04-08T17:13:49.116Z,102047.69
2023-04-08T17:16:22.507Z,102054.00
2023-04-08T17:18:50.852Z,102056.81
2023-04-08T17:21:27.496Z,102049.78
2023-04-08T17:24:26.258Z,102051.53
2023-04-08T17:26:51.280Z,102051.47
2023-04-08T17:29:24.842Z,102047.16
2023-04-08T17:31:54.755Z,102049.38
2023-04-08T17:34:30.004Z,102057.03
2023-04-08T17:37:11.417Z,102057.72
2023-04-08T17:39:51.729Z,102061.06
2023-04-08T17:42:27.129Z,102051.97
2023-04-08T17:44:54.226Z,102059.69
2023-04-08T17:47:33.401Z,102060.16
2023-04-08T17:50:02.761Z,102061.91
2023-04-08T17:52:38.266Z,102067.81
2023-04-08T17:55:09.583Z,102066.75
2023-04-08T17:57:45.920Z,102071.41
2023-04-08T18:00:14.606Z,102061.22
2023-04-08T18:02:58.672Z,102062.38
2023-04-08T18:05:27.503Z,102061.88
2023-04-08T18:07:54.352Z,102059.91
2023-04-08T18:10:25.710Z,102066.81
2023-04-08T18:13:03.734Z,102063.88
2023-04-08T18:15:43.614Z,102069.50
2023-04-08T18:18:21.554Z,102066.22
2023-04-08T18:20:48.456Z,102063.19
2023-04-08T18:23:36.055Z,102067.16
2023-04-08T18:26:04.054Z,102070.34
2023-04-08T18:28:33.896Z,102083.44
2023-04-08T18:31:01.017Z,102077.03
2023-04-08T18:33:28.436Z,102079.16
2023-04-08T18:35:56.477Z,102081.13
2023-04-08T18:38:27.537Z,102079.47
2023-04-08T18:40:54.390Z,102077.59
2023-04-08T18:43:28.743Z,102081.28
2023-04-08T18:45:55.646Z,102086.72
2023-04-08T18:48:22.418Z,102085.91
2023-04-08T18:50:49.228Z,102087.44
2023-04-08T18:53:16.508Z,102087.38
2023-04-08T18:55:46.342Z,102085.97
2023-04-08T18:58:32.004Z,102086.53
2023-04-08T19:00:58.977Z,102090.28
2023-04-08T19:03:28.897Z,102093.25
2023-04-08T19:06:01.227Z,102093.84
2023-04-08T19:08:28.287Z,102096.88
2023-04-08T19:10:55.072Z,102094.31
2023-04-08T19:13:31.489Z,102108.59
2023-04-08T19:16:05.921Z,102107.88
2023-04-08T19:18:35.465Z,102104.50
2023-04-08T19:21:11.843Z,102109.72
2023-04-08T19:23:38.791Z,102106.78
2023-04-08T19:26:14.736Z,102110.25
2023-04-08T19:28:47.053Z,102103.41
2023-04-08T19:31:20.331Z,102106.44
2023-04-08T19:33:50.697Z,102105.06
2023-04-08T19:36:17.838Z,102102.00
2023-04-08T19:38:53.133Z,102101.22
2023-04-08T19:41:21.335Z,102104.34
2023-04-08T19:43:48.203Z,102112.34
2023-04-08T19:46:20.060Z,102099.22
2023-04-08T19:48:48.747Z,102097.28
2023-04-08T19:51:22.480Z,102108.03
2023-04-08T19:53:52.876Z,102102.97
2023-04-08T19:56:22.484Z,102100.19
2023-04-08T19:58:49.842Z,102098.09
2023-04-08T20:01:17.602Z,102102.78
2023-04-08T20:03:50.667Z,102096.94
2023-04-08T20:06:30.240Z,102105.88
2023-04-08T20:08:57.655Z,102087.72
2023-04-08T20:11:33.538Z,102101.91
2023-04-08T20:16:45.072Z,102089.72
2023-04-08T20:19:18.261Z,102097.88
2023-04-08T20:22:14.162Z,102101.03
2023-04-08T20:24:47.927Z,102106.66
2023-04-08T20:27:24.450Z,102104.50
2023-04-08T20:30:00.983Z,102105.88
2023-04-08T20:32:30.790Z,102100.19
2023-04-08T20:35:02.711Z,102104.38
2023-04-08T20:37:38.249Z,102103.38
2023-04-08T20:40:09.216Z,102105.81
2023-04-08T20:42:48.585Z,102112.25
2023-04-08T20:45:27.270Z,102109.66
2023-04-08T20:47:54.300Z,102109.78
2023-04-08T20:50:21.313Z,102114.44
2023-04-08T20:52:53.520Z,102116.09
2023-04-08T20:55:22.982Z,102113.47
2023-04-08T20:57:49.653Z,102115.13
2023-04-08T21:00:23.889Z,102121.19
2023-04-08T21:02:51.166Z,102120.13
2023-04-08T21:05:18.439Z,102117.34
2023-04-08T21:07:45.575Z,102119.78
2023-04-08T21:10:26.411Z,102115.19
2023-04-08T21:12:53.295Z,102120.13
2023-04-08T21:15:21.481Z,102115.44
2023-04-08T21:18:11.336Z,102120.44
2023-04-08T21:20:43.257Z,102121.16
2023-04-08T21:23:24.961Z,102114.75
2023-04-08T21:26:03.597Z,102118.03
2023-04-08T21:28:34.514Z,102113.66
2023-04-08T21:31:20.390Z,102118.81
2023-04-08T21:33:47.177Z,102119.59
2023-04-08T21:36:30.011Z,102121.19
2023-04-08T21:38:58.219Z,102128.47
2023-04-08T21:41:25.028Z,102124.94
2023-04-08T21:43:57.149Z,102128.66
2023-04-08T21:46:24.174Z,102134.91
2023-04-08T21:48:53.561Z,102134.78
2023-04-08T21:51:20.700Z,102132.00
2023-04-08T21:53:50.795Z,102128.78
2023-04-08T21:56:20.911Z,102135.09
2023-04-08T21:58:54.548Z,102129.13
2023-04-08T22:01:30.868Z,102132.88
2023-04-08T22:04:10.030Z,102128.69
2023-04-08T22:06:55.460Z,102123.69
2023-04-08T22:09:35.351Z,102132.63
2023-04-08T22:12:21.472Z,102129.44
2023-04-08T22:14:51.592Z,102130.56
2023-04-08T22:17:21.113Z,102134.25
2023-04-08T22:19:48.049Z,102131.03
2023-04-08T22:22:24.382Z,102129.34
2023-04-08T22:24:57.406Z,102128.66
2023-04-08T22:27:28.942Z,102128.78
2023-04-08T22:29:58.650Z,102130.53
2023-04-08T22:32:25.385Z,102128.78
2023-04-08T22:34:57.795Z,102135.84
2023-04-08T22:37:24.811Z,102134.91
2023-04-08T22:39:54.709Z,102130.34
2023-04-08T22:42:30.050Z,102130.28
2023-04-08T22:45:04.687Z,102124.88
2023-04-08T22:47:31.626Z,102130.88
2023-04-08T22:49:58.565Z,102127.97
2023-04-08T22:52:25.514Z,102125.28
2023-04-08T22:54:54.917Z,102118.88
2023-04-08T22:57:27.137Z,102121.53
2023-04-08T22:59:58.464Z,102118.78
2023-04-08T23:02:25.438Z,102109.84
2023-04-08T23:04:57.958Z,102117.84
2023-04-08T23:07:24.831Z,102114.22
2023-04-08T23:09:51.656Z,102114.00
2023-04-08T23:12:27.747Z,102118.34
2023-04-08T23:14:57.205Z,102109.44
2023-04-08T23:17:51.269Z,102116.38
2023-04-08T23:21:05.670Z,102111.81
2023-04-08T23:23:32.598Z,102119.81
2023-04-08T23:26:22.984Z,102116.84
2023-04-08T23:28:52.853Z,102120.44
2023-04-08T23:31:44.521Z,102115.09
2023-04-08T23:34:11.850Z,102109.88
2023-04-08T23:36:55.931Z,102114.25
2023-04-08T23:39:22.806Z,102110.97
2023-04-08T23:42:02.580Z,102104.03
2023-04-08T23:44:32.362Z,102107.78
2023-04-08T23:47:10.192Z,102106.13
2023-04-08T23:49:38.247Z,102118.41
2023-04-08T23:52:14.054Z,102105.06
2023-04-08T23:54:51.323Z,102115.56
2023-04-08T23:57:21.776Z,102111.19
2023-04-08T23:59:48.813Z,102100.56
